sensor_id;sensor_type;location;lat;lon;timestamp;pressure;altitude;pressure_sealevel;temperature;humidity
26657;BME280;14279;50.010;8.260;2024-01-15T00:01:49;99385.75;;;-1.51;81.26
26657;BME280;14279;50.010;8.260;2024-01-15T00:04:14;99387.53;;;-1.56;81.57
26657;BME280;14279;50.010;8.260;2024-01-15T00:06:40;99378.06;;;-1.49;81.30
26657;BME280;14279;50.010;8.260;2024-01-15T00:09:05;99386.59;;;-1.49;81.29
26657;BME280;14279;50.010;8.260;2024-01-15T00:11:32;99379.72;;;-1.45;81.41
26657;BME280;14279;50.010;8.260;2024-01-15T00:13:57;99380.47;;;-1.37;81.08
26657;BME280;14279;50.010;8.260;2024-01-15T00:16:22;99369.38;;;-1.33;80.78
26657;BME280;14279;50.010;8.260;2024-01-15T00:18:47;99369.31;;;-1.28;80.45
26657;BME280;14279;50.010;8.260;2024-01-15T00:21:13;99369.44;;;-1.39;80.15
26657;BME280;14279;50.010;8.260;2024-01-15T00:23:42;99362.66;;;-1.40;80.20
26657;BME280;14279;50.010;8.260;2024-01-15T00:26:08;99359.19;;;-1.38;81.01
26657;BME280;14279;50.010;8.260;2024-01-15T00:28:33;99367.78;;;-1.43;80.96
26657;BME280;14279;50.010;8.260;2024-01-15T00:30:58;99371.16;;;-1.41;81.11
26657;BME280;14279;50.010;8.260;2024-01-15T00:33:24;99357.41;;;-1.29;80.86
26657;BME280;14279;50.010;8.260;2024-01-15T00:35:49;99348.94;;;-1.34;80.65
26657;BME280;14279;50.010;8.260;2024-01-15T00:38:14;99347.97;;;-1.26;80.24
26657;BME280;14279;50.010;8.260;2024-01-15T00:40:40;99344.75;;;-1.39;80.35
26657;BME280;14279;50.010;8.260;2024-01-15T00:43:05;99346.50;;;-1.42;79.64
26657;BME280;14279;50.010;8.260;2024-01-15T00:45:32;99354.69;;;-1.18;79.33
26657;BME280;14279;50.010;8.260;2024-01-15T00:47:58;99349.84;;;-1.37;79.04
26657;BME280;14279;50.010;8.260;2024-01-15T00:50:24;99345.41;;;-1.26;78.89
26657;BME280;14279;50.010;8.260;2024-01-15T00:52:50;99348.84;;;-1.27;78.86
26657;BME280;14279;50.010;8.260;2024-01-15T00:55:15;99343.78;;;-1.30;78.70
26657;BME280;14279;50.010;8.260;2024-01-15T00:57:40;99336.09;;;-1.28;78.54
26657;BME280;14279;50.010;8.260;2024-01-15T01:00:06;99336.94;;;-1.28;78.60
26657;BME280;14279;50.010;8.260;2024-01-15T01:02:32;99332.84;;;-1.38;78.63
26657;BME280;14279;50.010;8.260;2024-01-15T01:04:57;99324.91;;;-1.19;78.56
26657;BME280;14279;50.010;8.260;2024-01-15T01:07:23;99326.03;;;-1.41;78.46
26657;BME280;14279;50.010;8.260;2024-01-15T01:09:48;99318.16;;;-1.24;78.79
26657;BME280;14279;50.010;8.260;2024-01-15T01:12:14;99320.94;;;-1.41;78.85
26657;BME280;14279;50.010;8.260;2024-01-15T01:14:39;99322.63;;;-1.38;78.59
26657;BME280;14279;50.010;8.260;2024-01-15T01:17:05;99311.44;;;-1.29;78.79
26657;BME280;14279;50.010;8.260;2024-01-15T01:19:30;99312.22;;;-1.24;78.38
26657;BME280;14279;50.010;8.260;2024-01-15T01:21:55;99320.78;;;-1.28;78.33
26657;BME280;14279;50.010;8.260;2024-01-15T01:24:20;99319.09;;;-1.29;78.52
26657;BME280;14279;50.010;8.260;2024-01-15T01:26:46;99313.09;;;-1.27;78.45
26657;BME280;14279;50.010;8.260;2024-01-15T01:29:12;99310.50;;;-1.22;78.17
26657;BME280;14279;50.010;8.260;2024-01-15T01:31:42;99306.94;;;-1.15;78.07
26657;BME280;14279;50.010;8.260;2024-01-15T01:34:07;99306.22;;;-1.22;78.16
26657;BME280;14279;50.010;8.260;2024-01-15T01:36:33;99312.13;;;-1.19;78.18
26657;BME280;14279;50.010;8.260;2024-01-15T01:38:58;99311.44;;;-1.31;78.39
26657;BME280;14279;50.010;8.260;2024-01-15T01:41:23;99299.53;;;-1.30;78.52
26657;BME280;14279;50.010;8.260;2024-01-15T01:43:49;99290.63;;;-1.06;78.00
26657;BME280;14279;50.010;8.260;2024-01-15T01:46:15;99282.34;;;-1.21;78.54
26657;BME280;14279;50.010;8.260;2024-01-15T01:48:40;99297.66;;;-1.19;78.46
26657;BME280;14279;50.010;8.260;2024-01-15T01:51:06;99292.44;;;-1.11;78.23
26657;BME280;14279;50.010;8.260;2024-01-15T01:53:34;99307.94;;;-1.24;78.19
26657;BME280;14279;50.010;8.260;2024-01-15T01:56:00;99315.50;;;-1.17;78.73
26657;BME280;14279;50.010;8.260;2024-01-15T01:58:27;99318.06;;;-1.17;78.54
26657;BME280;14279;50.010;8.260;2024-01-15T02:00:53;99316.47;;;-1.25;78.32
26657;BME280;14279;50.010;8.260;2024-01-15T02:03:19;99324.78;;;-1.12;78.15
26657;BME280;14279;50.010;8.260;2024-01-15T02:05:45;99323.31;;;-1.27;78.29
26657;BME280;14279;50.010;8.260;2024-01-15T02:08:12;99316.34;;;-1.17;78.40
26657;BME280;14279;50.010;8.260;2024-01-15T02:10:38;99329.06;;;-1.12;78.17
26657;BME280;14279;50.010;8.260;2024-01-15T02:13:03;99316.97;;;-0.99;77.45
26657;BME280;14279;50.010;8.260;2024-01-15T02:15:28;99306.78;;;-1.04;77.86
26657;BME280;14279;50.010;8.260;2024-01-15T02:20:23;99309.22;;;-0.96;77.38
26657;BME280;14279;50.010;8.260;2024-01-15T02:22:49;99298.94;;;-0.93;77.37
26657;BME280;14279;50.010;8.260;2024-01-15T02:25:14;99298.63;;;-0.73;76.69
26657;BME280;14279;50.010;8.260;2024-01-15T02:27:39;99295.22;;;-0.72;77.01
26657;BME280;14279;50.010;8.260;2024-01-15T02:30:06;99287.31;;;-0.59;76.46
26657;BME280;14279;50.010;8.260;2024-01-15T02:32:33;99285.84;;;-0.73;76.82
26657;BME280;14279;50.010;8.260;2024-01-15T02:34:58;99282.38;;;-0.69;76.62
26657;BME280;14279;50.010;8.260;2024-01-15T02:37:23;99282.47;;;-0.75;76.80
26657;BME280;14279;50.010;8.260;2024-01-15T02:39:49;99283.34;;;-0.74;77.01
26657;BME280;14279;50.010;8.260;2024-01-15T02:42:14;99278.38;;;-0.84;77.53
26657;BME280;14279;50.010;8.260;2024-01-15T02:44:39;99290.19;;;-0.77;77.57
26657;BME280;14279;50.010;8.260;2024-01-15T02:47:05;99281.94;;;-0.93;77.94
26657;BME280;14279;50.010;8.260;2024-01-15T02:49:30;99282.06;;;-1.00;78.24
26657;BME280;14279;50.010;8.260;2024-01-15T02:51:57;99278.50;;;-0.93;77.56
26657;BME280;14279;50.010;8.260;2024-01-15T02:54:23;99284.44;;;-0.91;77.86
26657;BME280;14279;50.010;8.260;2024-01-15T02:56:48;99282.09;;;-1.03;78.12
26657;BME280;14279;50.010;8.260;2024-01-15T02:59:13;99280.06;;;-0.83;77.72
26657;BME280;14279;50.010;8.260;2024-01-15T03:01:38;99271.72;;;-0.93;78.08
26657;BME280;14279;50.010;8.260;2024-01-15T03:04:04;99276.16;;;-1.06;79.08
26657;BME280;14279;50.010;8.260;2024-01-15T03:06:29;99281.31;;;-1.09;79.28
26657;BME280;14279;50.010;8.260;2024-01-15T03:08:54;99261.63;;;-1.00;78.73
26657;BME280;14279;50.010;8.260;2024-01-15T03:11:19;99273.69;;;-1.10;79.17
26657;BME280;14279;50.010;8.260;2024-01-15T03:13:45;99276.25;;;-1.10;79.52
26657;BME280;14279;50.010;8.260;2024-01-15T03:16:10;99277.88;;;-1.06;79.31
26657;BME280;14279;50.010;8.260;2024-01-15T03:18:35;99278.81;;;-1.12;79.85
26657;BME280;14279;50.010;8.260;2024-01-15T03:21:00;99264.97;;;-0.97;80.05
26657;BME280;14279;50.010;8.260;2024-01-15T03:23:28;99259.97;;;-1.06;79.89
26657;BME280;14279;50.010;8.260;2024-01-15T03:25:54;99276.13;;;-1.04;79.89
26657;BME280;14279;50.010;8.260;2024-01-15T03:28:19;99262.41;;;-0.97;79.20
26657;BME280;14279;50.010;8.260;2024-01-15T03:30:45;99275.44;;;-1.12;79.40
26657;BME280;14279;50.010;8.260;2024-01-15T03:33:10;99268.50;;;-1.06;78.95
26657;BME280;14279;50.010;8.260;2024-01-15T03:35:35;99265.69;;;-0.90;78.37
26657;BME280;14279;50.010;8.260;2024-01-15T03:38:00;99261.50;;;-0.94;78.52
26657;BME280;14279;50.010;8.260;2024-01-15T03:40:26;99259.84;;;-0.97;78.72
26657;BME280;14279;50.010;8.260;2024-01-15T03:42:51;99254.66;;;-0.91;78.75
26657;BME280;14279;50.010;8.260;2024-01-15T03:45:16;99246.06;;;-0.86;78.38
26657;BME280;14279;50.010;8.260;2024-01-15T03:47:41;99253.06;;;-0.98;78.98
26657;BME280;14279;50.010;8.260;2024-01-15T03:50:07;99254.69;;;-0.94;78.96
26657;BME280;14279;50.010;8.260;2024-01-15T03:52:32;99254.84;;;-1.03;79.32
26657;BME280;14279;50.010;8.260;2024-01-15T03:54:58;99241.00;;;-0.91;79.27
26657;BME280;14279;50.010;8.260;2024-01-15T03:57:23;99245.34;;;-0.95;79.08
26657;BME280;14279;50.010;8.260;2024-01-15T03:59:48;99247.81;;;-0.90;79.11
26657;BME280;14279;50.010;8.260;2024-01-15T04:02:13;99240.09;;;-0.87;79.11
26657;BME280;14279;50.010;8.260;2024-01-15T04:04:43;99246.31;;;-1.02;79.01
26657;BME280;14279;50.010;8.260;2024-01-15T04:07:11;99249.41;;;-0.83;78.95
26657;BME280;14279;50.010;8.260;2024-01-15T04:09:36;99247.72;;;-0.84;79.34
26657;BME280;14279;50.010;8.260;2024-01-15T04:12:01;99252.81;;;-0.84;79.48
26657;BME280;14279;50.010;8.260;2024-01-15T04:14:27;99268.00;;;-0.76;79.25
26657;BME280;14279;50.010;8.260;2024-01-15T04:16:53;99269.09;;;-0.89;79.17
26657;BME280;14279;50.010;8.260;2024-01-15T04:19:18;99255.53;;;-0.93;79.04
26657;BME280;14279;50.010;8.260;2024-01-15T04:21:44;99257.97;;;-0.85;78.50
26657;BME280;14279;50.010;8.260;2024-01-15T04:24:09;99262.75;;;-0.68;78.13
26657;BME280;14279;50.010;8.260;2024-01-15T04:26:34;99258.47;;;-0.65;77.88
26657;BME280;14279;50.010;8.260;2024-01-15T04:29:00;99260.97;;;-0.62;77.92
26657;BME280;14279;50.010;8.260;2024-01-15T04:31:25;99259.97;;;-0.54;77.22
26657;BME280;14279;50.010;8.260;2024-01-15T04:33:52;99260.97;;;-0.62;77.43
26657;BME280;14279;50.010;8.260;2024-01-15T04:36:17;99265.06;;;-0.53;77.35
26657;BME280;14279;50.010;8.260;2024-01-15T04:38:42;99262.31;;;-0.42;77.81
26657;BME280;14279;50.010;8.260;2024-01-15T04:41:26;99260.78;;;-0.52;78.16
26657;BME280;14279;50.010;8.260;2024-01-15T04:43:51;99257.34;;;-0.51;78.41
26657;BME280;14279;50.010;8.260;2024-01-15T04:46:17;99261.38;;;-0.38;77.89
26657;BME280;14279;50.010;8.260;2024-01-15T04:48:42;99252.03;;;-0.39;77.82
26657;BME280;14279;50.010;8.260;2024-01-15T04:51:08;99247.06;;;-0.48;77.85
26657;BME280;14279;50.010;8.260;2024-01-15T04:53:34;99245.53;;;-0.58;77.98
26657;BME280;14279;50.010;8.260;2024-01-15T04:56:00;99241.31;;;-0.59;78.09
26657;BME280;14279;50.010;8.260;2024-01-15T04:58:25;99248.28;;;-0.69;78.50
26657;BME280;14279;50.010;8.260;2024-01-15T05:00:52;99240.63;;;-0.68;78.46
26657;BME280;14279;50.010;8.260;2024-01-15T05:03:17;99245.88;;;-0.76;78.58
26657;BME280;14279;50.010;8.260;2024-01-15T05:05:43;99233.63;;;-0.58;78.21
26657;BME280;14279;50.010;8.260;2024-01-15T05:08:08;99232.75;;;-0.58;78.36
26657;BME280;14279;50.010;8.260;2024-01-15T05:10:33;99224.47;;;-0.70;79.54
26657;BME280;14279;50.010;8.260;2024-01-15T05:12:58;99232.03;;;-0.65;78.97
26657;BME280;14279;50.010;8.260;2024-01-15T05:15:24;99240.03;;;-0.84;80.30
26657;BME280;14279;50.010;8.260;2024-01-15T05:17:49;99243.13;;;-0.66;80.78
26657;BME280;14279;50.010;8.260;2024-01-15T05:20:14;99234.53;;;-0.61;80.96
26657;BME280;14279;50.010;8.260;2024-01-15T05:22:39;99242.25;;;-0.65;81.98
26657;BME280;14279;50.010;8.260;2024-01-15T05:25:05;99240.00;;;-0.81;84.34
26657;BME280;14279;50.010;8.260;2024-01-15T05:27:30;99239.59;;;-0.59;84.47
26657;BME280;14279;50.010;8.260;2024-01-15T05:29:56;99232.03;;;-0.65;85.13
26657;BME280;14279;50.010;8.260;2024-01-15T05:32:21;99234.16;;;-0.87;85.46
26657;BME280;14279;50.010;8.260;2024-01-15T05:34:46;99226.44;;;-0.86;86.23
26657;BME280;14279;50.010;8.260;2024-01-15T05:37:12;99231.59;;;-0.89;86.05
26657;BME280;14279;50.010;8.260;2024-01-15T05:39:37;99226.94;;;-0.65;85.75
26657;BME280;14279;50.010;8.260;2024-01-15T05:42:03;99225.47;;;-0.79;84.37
26657;BME280;14279;50.010;8.260;2024-01-15T05:44:28;99230.09;;;-0.52;83.99
26657;BME280;14279;50.010;8.260;2024-01-15T05:46:53;99224.09;;;-0.50;83.15
26657;BME280;14279;50.010;8.260;2024-01-15T05:49:19;99223.19;;;-0.47;82.53
26657;BME280;14279;50.010;8.260;2024-01-15T05:51:44;99228.41;;;-0.53;82.15
26657;BME280;14279;50.010;8.260;2024-01-15T05:54:09;99218.78;;;-0.39;81.96
26657;BME280;14279;50.010;8.260;2024-01-15T05:56:35;99222.06;;;-0.32;81.29
26657;BME280;14279;50.010;8.260;2024-01-15T05:59:00;99220.31;;;-0.30;80.71
26657;BME280;14279;50.010;8.260;2024-01-15T06:01:25;99218.78;;;-0.39;80.46
26657;BME280;14279;50.010;8.260;2024-01-15T06:03:52;99211.84;;;-0.34;80.42
26657;BME280;14279;50.010;8.260;2024-01-15T06:06:17;99213.50;;;-0.31;80.13
26657;BME280;14279;50.010;8.260;2024-01-15T06:08:43;99214.28;;;-0.27;79.65
26657;BME280;14279;50.010;8.260;2024-01-15T06:11:08;99202.41;;;-0.30;79.75
26657;BME280;14279;50.010;8.260;2024-01-15T06:13:33;99195.44;;;-0.23;79.86
26657;BME280;14279;50.010;8.260;2024-01-15T06:15:58;99208.34;;;-0.29;79.90
26657;BME280;14279;50.010;8.260;2024-01-15T06:18:24;99206.44;;;-0.20;79.34
26657;BME280;14279;50.010;8.260;2024-01-15T06:20:49;99199.00;;;-0.31;80.07
26657;BME280;14279;50.010;8.260;2024-01-15T06:23:14;99198.13;;;-0.29;81.35
26657;BME280;14279;50.010;8.260;2024-01-15T06:25:39;99200.06;;;-0.42;83.38
26657;BME280;14279;50.010;8.260;2024-01-15T06:28:05;99207.69;;;-0.38;83.69
26657;BME280;14279;50.010;8.260;2024-01-15T06:30:30;99208.00;;;-0.56;84.62
26657;BME280;14279;50.010;8.260;2024-01-15T06:32:55;99200.69;;;-0.29;84.13
26657;BME280;14279;50.010;8.260;2024-01-15T06:35:20;99194.47;;;-0.18;84.01
26657;BME280;14279;50.010;8.260;2024-01-15T06:37:46;99203.81;;;-0.15;83.23
26657;BME280;14279;50.010;8.260;2024-01-15T06:40:11;99207.63;;;-0.36;83.24
26657;BME280;14279;50.010;8.260;2024-01-15T06:42:36;99195.81;;;-0.42;83.77
26657;BME280;14279;50.010;8.260;2024-01-15T06:45:02;99198.97;;;-0.29;83.06
26657;BME280;14279;50.010;8.260;2024-01-15T06:47:27;99205.78;;;-0.29;82.80
26657;BME280;14279;50.010;8.260;2024-01-15T06:49:52;99216.25;;;0.01;81.34
26657;BME280;14279;50.010;8.260;2024-01-15T06:52:18;99204.69;;;-0.18;82.06
26657;BME280;14279;50.010;8.260;2024-01-15T06:54:43;99205.34;;;-0.08;81.27
26657;BME280;14279;50.010;8.260;2024-01-15T06:57:08;99202.66;;;-0.02;81.74
26657;BME280;14279;50.010;8.260;2024-01-15T06:59:34;99198.69;;;-0.15;80.96
26657;BME280;14279;50.010;8.260;2024-01-15T07:02:00;99193.75;;;0.17;81.24
26657;BME280;14279;50.010;8.260;2024-01-15T07:04:26;99202.75;;;0.35;80.04
26657;BME280;14279;50.010;8.260;2024-01-15T07:06:51;99192.81;;;0.57;78.64
26657;BME280;14279;50.010;8.260;2024-01-15T07:09:16;99196.19;;;0.59;77.74
26657;BME280;14279;50.010;8.260;2024-01-15T07:11:45;99200.78;;;0.81;77.28
26657;BME280;14279;50.010;8.260;2024-01-15T07:14:11;99187.81;;;0.52;77.92
26657;BME280;14279;50.010;8.260;2024-01-15T07:16:37;99194.13;;;0.73;77.08
26657;BME280;14279;50.010;8.260;2024-01-15T07:19:02;99193.63;;;0.94;76.00
26657;BME280;14279;50.010;8.260;2024-01-15T07:21:27;99194.63;;;0.52;77.37
26657;BME280;14279;50.010;8.260;2024-01-15T07:23:52;99181.28;;;0.40;77.31
26657;BME280;14279;50.010;8.260;2024-01-15T07:26:18;99189.88;;;0.36;77.83
26657;BME280;14279;50.010;8.260;2024-01-15T07:28:43;99190.31;;;0.55;76.98
26657;BME280;14279;50.010;8.260;2024-01-15T07:31:08;99187.50;;;0.66;77.14
26657;BME280;14279;50.010;8.260;2024-01-15T07:33:34;99190.94;;;0.65;77.08
26657;BME280;14279;50.010;8.260;2024-01-15T07:35:59;99195.84;;;0.37;77.11
26657;BME280;14279;50.010;8.260;2024-01-15T07:38:24;99197.47;;;0.41;76.91
26657;BME280;14279;50.010;8.260;2024-01-15T07:40:49;99196.59;;;0.42;77.90
26657;BME280;14279;50.010;8.260;2024-01-15T07:43:15;99193.28;;;-0.01;79.39
26657;BME280;14279;50.010;8.260;2024-01-15T07:45:40;99196.13;;;0.24;79.08
26657;BME280;14279;50.010;8.260;2024-01-15T07:48:06;99196.47;;;0.09;79.03
26657;BME280;14279;50.010;8.260;2024-01-15T07:50:31;99199.91;;;0.08;79.26
26657;BME280;14279;50.010;8.260;2024-01-15T07:52:56;99202.50;;;0.06;79.84
26657;BME280;14279;50.010;8.260;2024-01-15T07:55:22;99202.53;;;0.05;79.84
26657;BME280;14279;50.010;8.260;2024-01-15T07:57:47;99199.75;;;0.16;79.92
26657;BME280;14279;50.010;8.260;2024-01-15T08:00:13;99193.28;;;-0.01;80.13
26657;BME280;14279;50.010;8.260;2024-01-15T08:02:38;99193.31;;;-0.03;80.59
26657;BME280;14279;50.010;8.260;2024-01-15T08:05:04;99200.81;;;0.05;80.07
26657;BME280;14279;50.010;8.260;2024-01-15T08:07:29;99196.09;;;0.26;79.60
26657;BME280;14279;50.010;8.260;2024-01-15T08:09:54;99196.91;;;0.28;79.15
26657;BME280;14279;50.010;8.260;2024-01-15T08:12:20;99183.16;;;0.32;78.95
26657;BME280;14279;50.010;8.260;2024-01-15T08:14:45;99190.13;;;0.25;79.46
26657;BME280;14279;50.010;8.260;2024-01-15T08:17:11;99181.47;;;0.31;79.16
26657;BME280;14279;50.010;8.260;2024-01-15T08:19:36;99187.94;;;0.46;78.50
26657;BME280;14279;50.010;8.260;2024-01-15T08:22:01;99178.16;;;0.27;79.08
26657;BME280;14279;50.010;8.260;2024-01-15T08:24:27;99184.69;;;0.39;78.68
26657;BME280;14279;50.010;8.260;2024-01-15T08:26:53;99177.91;;;0.38;78.41
26657;BME280;14279;50.010;8.260;2024-01-15T08:29:19;99171.84;;;0.41;78.09
26657;BME280;14279;50.010;8.260;2024-01-15T08:31:46;99175.16;;;0.46;78.40
26657;BME280;14279;50.010;8.260;2024-01-15T08:34:11;99175.63;;;0.62;77.67
26657;BME280;14279;50.010;8.260;2024-01-15T08:36:36;99181.03;;;0.84;76.77
26657;BME280;14279;50.010;8.260;2024-01-15T08:39:02;99181.84;;;0.86;76.63
26657;BME280;14279;50.010;8.260;2024-01-15T08:41:30;99181.03;;;0.84;76.37
26657;BME280;14279;50.010;8.260;2024-01-15T08:43:55;99181.81;;;0.88;76.35
26657;BME280;14279;50.010;8.260;2024-01-15T08:46:20;99174.88;;;0.92;76.19
26657;BME280;14279;50.010;8.260;2024-01-15T08:48:45;99181.41;;;0.70;76.56
26657;BME280;14279;50.010;8.260;2024-01-15T08:51:11;99182.84;;;0.81;76.38
26657;BME280;14279;50.010;8.260;2024-01-15T08:53:36;99193.91;;;0.83;75.94
26657;BME280;14279;50.010;8.260;2024-01-15T08:56:01;99204.09;;;0.86;75.79
26657;BME280;14279;50.010;8.260;2024-01-15T08:58:27;99201.44;;;0.54;76.29
26657;BME280;14279;50.010;8.260;2024-01-15T09:00:52;99206.38;;;0.60;76.55
26657;BME280;14279;50.010;8.260;2024-01-15T09:03:17;99209.25;;;0.48;77.29
26657;BME280;14279;50.010;8.260;2024-01-15T09:05:43;99208.50;;;0.44;77.65
26657;BME280;14279;50.010;8.260;2024-01-15T09:08:08;99204.50;;;0.33;77.63
26657;BME280;14279;50.010;8.260;2024-01-15T09:10:34;99209.06;;;0.56;77.42
26657;BME280;14279;50.010;8.260;2024-01-15T09:12:59;99214.25;;;0.53;77.42
26657;BME280;14279;50.010;8.260;2024-01-15T09:15:25;99215.09;;;0.53;77.39
26657;BME280;14279;50.010;8.260;2024-01-15T09:17:50;99213.38;;;0.54;77.17
26657;BME280;14279;50.010;8.260;2024-01-15T09:20:16;99220.28;;;0.50;77.48
26657;BME280;14279;50.010;8.260;2024-01-15T09:22:41;99212.25;;;0.66;76.82
26657;BME280;14279;50.010;8.260;2024-01-15T09:25:08;99216.13;;;0.46;77.55
26657;BME280;14279;50.010;8.260;2024-01-15T09:27:35;99205.28;;;0.71;76.74
26657;BME280;14279;50.010;8.260;2024-01-15T09:30:00;99190.25;;;0.93;76.04
26657;BME280;14279;50.010;8.260;2024-01-15T09:32:25;99193.44;;;1.01;75.11
26657;BME280;14279;50.010;8.260;2024-01-15T09:34:50;99190.66;;;1.11;75.38
26657;BME280;14279;50.010;8.260;2024-01-15T09:37:16;99184.59;;;0.80;75.65
26657;BME280;14279;50.010;8.260;2024-01-15T09:39:41;99185.94;;;0.94;76.02
26657;BME280;14279;50.010;8.260;2024-01-15T09:42:07;99179.44;;;1.15;75.35
26657;BME280;14279;50.010;8.260;2024-01-15T09:44:33;99183.09;;;1.06;75.50
26657;BME280;14279;50.010;8.260;2024-01-15T09:46:58;99182.66;;;1.22;74.65
26657;BME280;14279;50.010;8.260;2024-01-15T09:49:24;99191.81;;;0.99;75.46
26657;BME280;14279;50.010;8.260;2024-01-15T09:51:49;99193.28;;;1.08;75.67
26657;BME280;14279;50.010;8.260;2024-01-15T09:54:15;99194.47;;;1.27;74.62
26657;BME280;14279;50.010;8.260;2024-01-15T09:56:45;99189.94;;;1.37;74.50
26657;BME280;14279;50.010;8.260;2024-01-15T09:59:11;99200.91;;;1.44;74.57
26657;BME280;14279;50.010;8.260;2024-01-15T10:01:37;99186.75;;;1.29;74.63
26657;BME280;14279;50.010;8.260;2024-01-15T10:04:04;99192.97;;;1.52;73.88
26657;BME280;14279;50.010;8.260;2024-01-15T10:06:30;99197.41;;;1.45;73.89
26657;BME280;14279;50.010;8.260;2024-01-15T10:08:56;99187.72;;;1.56;73.51
26657;BME280;14279;50.010;8.260;2024-01-15T10:11:23;99182.59;;;1.56;73.92
26657;BME280;14279;50.010;8.260;2024-01-15T10:13:49;99175.31;;;1.71;72.99
26657;BME280;14279;50.010;8.260;2024-01-15T10:16:21;99172.47;;;1.52;74.49
26657;BME280;14279;50.010;8.260;2024-01-15T10:18:47;99182.81;;;1.48;74.47
26657;BME280;14279;50.010;8.260;2024-01-15T10:21:13;99182.41;;;1.62;74.14
26657;BME280;14279;50.010;8.260;2024-01-15T10:23:39;99192.28;;;1.76;73.74
26657;BME280;14279;50.010;8.260;2024-01-15T10:26:04;99193.72;;;1.55;73.36
26657;BME280;14279;50.010;8.260;2024-01-15T10:28:30;99189.34;;;1.59;74.12
26657;BME280;14279;50.010;8.260;2024-01-15T10:30:57;99190.53;;;1.78;73.84
26657;BME280;14279;50.010;8.260;2024-01-15T10:33:24;99180.84;;;1.57;74.45
26657;BME280;14279;50.010;8.260;2024-01-15T10:35:53;99170.94;;;1.44;74.51
26657;BME280;14279;50.010;8.260;2024-01-15T10:38:20;99167.41;;;1.48;75.07
26657;BME280;14279;50.010;8.260;2024-01-15T10:40:50;99162.00;;;1.58;74.74
26657;BME280;14279;50.010;8.260;2024-01-15T10:43:16;99161.34;;;1.51;74.80
26657;BME280;14279;50.010;8.260;2024-01-15T10:45:44;99159.94;;;1.41;75.28
26657;BME280;14279;50.010;8.260;2024-01-15T10:48:10;99152.53;;;1.30;75.82
26657;BME280;14279;50.010;8.260;2024-01-15T10:50:35;99148.44;;;1.54;75.22
26657;BME280;14279;50.010;8.260;2024-01-15T10:53:01;99147.72;;;1.49;75.68
26657;BME280;14279;50.010;8.260;2024-01-15T10:55:27;99144.44;;;1.75;74.79
26657;BME280;14279;50.010;8.260;2024-01-15T10:57:53;99141.56;;;1.85;74.27
26657;BME280;14279;50.010;8.260;2024-01-15T11:00:21;99139.81;;;1.57;74.63
26657;BME280;14279;50.010;8.260;2024-01-15T11:02:47;99127.47;;;1.70;74.84
26657;BME280;14279;50.010;8.260;2024-01-15T11:05:12;99127.44;;;1.41;75.03
26657;BME280;14279;50.010;8.260;2024-01-15T11:07:39;99126.63;;;1.39;75.40
26657;BME280;14279;50.010;8.260;2024-01-15T11:10:05;99130.00;;;1.41;75.55
26657;BME280;14279;50.010;8.260;2024-01-15T11:12:31;99114.53;;;1.44;75.85
26657;BME280;14279;50.010;8.260;2024-01-15T11:15:03;99119.69;;;1.73;75.14
26657;BME280;14279;50.010;8.260;2024-01-15T11:18:00;99126.53;;;1.72;74.87
26657;BME280;14279;50.010;8.260;2024-01-15T11:20:26;99114.22;;;1.84;74.73
26657;BME280;14279;50.010;8.260;2024-01-15T11:22:51;99107.72;;;1.72;74.41
26657;BME280;14279;50.010;8.260;2024-01-15T11:25:19;99103.88;;;1.87;74.37
26657;BME280;14279;50.010;8.260;2024-01-15T11:27:48;99097.81;;;1.89;73.81
26657;BME280;14279;50.010;8.260;2024-01-15T11:30:16;99109.69;;;1.92;74.51
26657;BME280;14279;50.010;8.260;2024-01-15T11:32:42;99114.28;;;1.82;74.31
26657;BME280;14279;50.010;8.260;2024-01-15T11:35:09;99099.53;;;1.89;74.04
26657;BME280;14279;50.010;8.260;2024-01-15T11:43:06;99103.28;;;2.34;73.48
26657;BME280;14279;50.010;8.260;2024-01-15T11:45:32;99100.09;;;2.52;72.73
26657;BME280;14279;50.010;8.260;2024-01-15T11:48:12;99101.69;;;2.30;72.17
26657;BME280;14279;50.010;8.260;2024-01-15T11:50:42;99107.94;;;1.94;72.69
26657;BME280;14279;50.010;8.260;2024-01-15T11:53:18;99106.81;;;1.74;73.03
26657;BME280;14279;50.010;8.260;2024-01-15T11:55:46;99106.25;;;1.93;73.10
26657;BME280;14279;50.010;8.260;2024-01-15T11:58:13;99109.94;;;1.84;72.84
26657;BME280;14279;50.010;8.260;2024-01-15T12:00:40;99100.66;;;1.80;72.97
26657;BME280;14279;50.010;8.260;2024-01-15T12:03:06;99108.41;;;1.78;72.33
26657;BME280;14279;50.010;8.260;2024-01-15T12:05:32;99111.44;;;1.91;72.47
26657;BME280;14279;50.010;8.260;2024-01-15T12:07:57;99105.59;;;1.86;72.25
26657;BME280;14279;50.010;8.260;2024-01-15T12:10:22;99115.88;;;1.86;72.28
26657;BME280;14279;50.010;8.260;2024-01-15T12:13:11;99108.88;;;1.91;71.75
26657;BME280;14279;50.010;8.260;2024-01-15T12:15:37;99100.81;;;1.75;72.56
26657;BME280;14279;50.010;8.260;2024-01-15T12:18:07;99111.63;;;1.85;72.49
26657;BME280;14279;50.010;8.260;2024-01-15T12:20:33;99106.72;;;1.77;72.00
26657;BME280;14279;50.010;8.260;2024-01-15T12:22:59;99097.69;;;1.65;72.28
26657;BME280;14279;50.010;8.260;2024-01-15T12:25:24;99126.88;;;1.61;72.36
26657;BME280;14279;50.010;8.260;2024-01-15T12:27:52;99098.50;;;1.66;72.30
26657;BME280;14279;50.010;8.260;2024-01-15T12:30:17;99106.72;;;1.77;72.12
26657;BME280;14279;50.010;8.260;2024-01-15T12:32:44;99107.09;;;1.65;72.25
26657;BME280;14279;50.010;8.260;2024-01-15T12:35:10;99109.25;;;1.79;72.21
26657;BME280;14279;50.010;8.260;2024-01-15T12:37:39;99102.16;;;1.87;71.19
26657;BME280;14279;50.010;8.260;2024-01-15T12:40:09;99104.00;;;1.82;71.62
26657;BME280;14279;50.010;8.260;2024-01-15T12:42:41;99091.91;;;1.86;71.62
26657;BME280;14279;50.010;8.260;2024-01-15T12:45:09;99087.75;;;1.82;71.41
26657;BME280;14279;50.010;8.260;2024-01-15T12:47:34;99078.53;;;1.76;71.57
26657;BME280;14279;50.010;8.260;2024-01-15T12:50:00;99106.25;;;1.93;71.37
26657;BME280;14279;50.010;8.260;2024-01-15T12:52:27;99096.13;;;1.88;71.35
26657;BME280;14279;50.010;8.260;2024-01-15T12:54:53;99108.81;;;1.93;70.74
26657;BME280;14279;50.010;8.260;2024-01-15T12:57:18;99108.06;;;2.18;70.68
26657;BME280;14279;50.010;8.260;2024-01-15T12:59:44;99127.72;;;1.90;70.95
26657;BME280;14279;50.010;8.260;2024-01-15T13:02:11;99116.34;;;1.99;70.23
26657;BME280;14279;50.010;8.260;2024-01-15T13:04:39;99126.38;;;2.05;70.15
26657;BME280;14279;50.010;8.260;2024-01-15T13:07:08;99099.34;;;1.95;70.67